Meteo Giornale » Osservazioni meteo Stati Uniti (USA) » San Marcos
ore: 02:56 - Osservazioni Meteo San Marcos
Lat. 29° 53' N Lon. 97° 51' W Alt. 182 metri s.l.m.
24 °C
Sereno
Temp. 24 Ore
23 °C
37 °C
Nord
0 Km/h
Dew point 22 °C
Umidità 88 %
Visibilità 10 Km
Il sole sorge alle ore 07:08
Il sole tramonta alle ore 19:53
| Data e Ora | Cielo e Fenomeni | T °C | DP °C | Um. % | Pres. hPa | Vis. km | Vento km/h | |
|---|---|---|---|---|---|---|---|---|
| Oggi h: 02:56 | Sereno | 24 | 22 | 88 | 1016 | 10 | N 0 | |
| Oggi h: 01:56 | Sereno | 25 | 22 | 83 | 1016 | 10 | N 5.5 | |
| Oggi h: 00:56 | Sereno | 27 | 22 | 74 | 1016 | 10 | S 9.3 | |
| Ieri h: 23:56 | Sereno | 28 | 22 | 69 | 1016 | 10 | S/SE 11.1 | |
| Ieri h: 22:56 | Sereno | 29 | 22 | 66 | 1015 | 10 | S/SE 16.7 | |
| Ieri h: 21:56 | Sereno | 31 | 22 | 58 | 1015 | 10 | SE 24 | |
| Ieri h: 20:56 | Sereno | 31 | 21 | 55 | 1014 | 10 | SE 7.4 | |
| Ieri h: 19:56 | Molto Nuvoloso | 34 | 19 | 41 | 1013 | 10 | SE 20.3 | |
| Ieri h: 18:56 | Nuvoloso | 36 | 18 | 34 | 1012 | 10 | E 16.7 | |
| Ieri h: 17:56 | Sereno | 37 | 18 | 32 | 1012 | 10 | SE 18.5 | |
| Ieri h: 16:56 | Sereno | 37 | 19 | 35 | 1013 | 10 | SE 11.1 | |
| Ieri h: 15:56 | Poco Nuvoloso | 37 | 20 | 37 | 1014 | 10 | N 7.4 | |
| Ieri h: 14:56 | Poco Nuvoloso | 37 | 21 | 39 | 1015 | 10 | E/SE 18.5 | |
| Ieri h: 13:56 | Sereno | 36 | 21 | 41 | 1016 | 10 | N 0 | |
| Ieri h: 12:56 | Molto Nuvoloso | 33 | 22 | 52 | 1017 | 10 | SE 13 | |
| Ieri h: 11:56 | Sereno | 32 | 23 | 59 | 1017 | 10 | N 11.1 | |
| Ieri h: 11:03 | Poco Nuvoloso | 31 | 23 | 62 | 1017 | 10 | S 9.3 | |
| Ieri h: 10:56 | Molto Nuvoloso | 31 | 23 | 62 | 1017 | 10 | S 16.7 | |
| Ieri h: 10:32 | Molto Nuvoloso | 30 | 24 | 70 | 1017 | 10 | S 13 | |
| Ieri h: 10:06 | Molto Nuvoloso | 28 | 24 | 78 | 1017 | 10 | S 13 | |
| Ieri h: 09:56 | Poco Nuvoloso | 28 | 25 | 83 | 1017 | 10 | S 11.1 | |
| Ieri h: 09:43 | Nuvoloso | 28 | 24 | 78 | 1017 | 10 | S 14.8 | |
| Ieri h: 09:30 | Molto Nuvoloso | 28 | 24 | 78 | 1017 | 10 | S/SO 11.1 | |
| Ieri h: 09:23 | Nuvoloso | 28 | 25 | 83 | 1017 | 10 | S 9.3 | |
| Ieri h: 09:10 | Molto Nuvoloso | 28 | 25 | 83 | 1017 | 10 | S/SE 7.4 | |
| Ieri h: 08:56 | Poco Nuvoloso | 27 | 25 | 88 | 1017 | 10 | S/SE 7.4 | |
| Ieri h: 07:56 | Poco Nuvoloso | 24 | 24 | 100 | 1016 | 5 | N 0 | |
| Ieri h: 07:53 | Poco Nuvoloso | 24 | 24 | 100 | 1016 | 5 | N 5.5 | |
| Ieri h: 07:51 | Poco Nuvoloso | 24 | 23 | 94 | 1016 | 5 | N 0 | |
| Ieri h: 07:48 | Cielo Invisibile | 23 | 23 | 100 | 1016 | 5 | N 0 | |
| Ieri h: 07:42 | Cielo Invisibile | 23 | 23 | 100 | 1016 | 2 | N 0 | |
| Ieri h: 07:34 | Cielo Invisibile | 23 | 23 | 100 | 1016 | 2 | N 0 | |
| Ieri h: 07:26 | Cielo Invisibile | 23 | 23 | 100 | 1016 | 5 | N 0 | |
| Ieri h: 07:18 | Poco Nuvoloso | 23 | 23 | 100 | 1016 | 2 | N 0 | |
| Ieri h: 07:02 | Sereno | 23 | 23 | 100 | 1016 | 2 | N 0 | |
| Ieri h: 06:59 | Sereno | 23 | 22 | 94 | 1016 | 2 | N 0 | |
| Ieri h: 06:56 | Sereno | 23 | 22 | 94 | 1016 | 3 | N 0 | |
| Ieri h: 05:56 | Poco Nuvoloso | 23 | 23 | 100 | 1016 | 10 | N 0 | |
| Ieri h: 05:29 | Nuvoloso | 24 | 23 | 94 | 1016 | 10 | SE 7.4 | |
| Ieri h: 04:56 | Molto Nuvoloso | 26 | 24 | 88 | 1016 | 10 | N 5.5 | |
| Ieri h: 04:29 | Molto Nuvoloso | 26 | 24 | 88 | 1016 | 10 | S/SO 7.4 | |
| Ieri h: 03:56 | Coperto | 26 | 24 | 88 | 1016 | 10 | S/SO 7.4 | |
| Ieri h: 03:40 | Coperto | 26 | 24 | 88 | 1016 | 10 | N 5.5 | |



